createdAt,value
2023-01-03T00:01:27.405Z,3.03
2023-01-03T00:03:56.319Z,2.63
2023-01-03T00:06:26.426Z,3.20
2023-01-03T00:08:55.705Z,4.47
2023-01-03T00:11:44.346Z,2.17
2023-01-03T00:14:15.153Z,1.63
2023-01-03T00:16:43.033Z,1.67
2023-01-03T00:19:14.891Z,2.47
2023-01-03T00:21:44.735Z,1.17
2023-01-03T00:24:12.169Z,2.72
2023-01-03T00:26:41.074Z,3.45
2023-01-03T00:29:12.190Z,2.15
2023-01-03T00:31:40.778Z,2.05
2023-01-03T00:34:13.173Z,0.47
2023-01-03T00:36:41.220Z,1.77
2023-01-03T00:39:10.559Z,3.35
2023-01-03T00:44:05.808Z,1.00
2023-01-03T00:46:34.094Z,3.50
2023-01-03T00:49:02.136Z,0.95
2023-01-03T00:51:32.474Z,3.70
2023-01-03T00:54:01.455Z,1.85
2023-01-03T00:56:35.216Z,2.45
2023-01-03T00:59:03.435Z,4.40
2023-01-03T01:01:46.247Z,2.72
2023-01-03T01:04:20.242Z,2.60
2023-01-03T01:06:53.150Z,4.32
2023-01-03T01:09:26.855Z,3.53
2023-01-03T01:11:54.866Z,2.22
2023-01-03T01:14:24.803Z,2.08
2023-01-03T01:17:01.552Z,3.05
2023-01-03T01:19:32.170Z,3.20
2023-01-03T01:22:00.411Z,4.25
2023-01-03T01:24:27.722Z,3.38
2023-01-03T01:26:55.706Z,5.45
2023-01-03T01:29:22.782Z,2.47
2023-01-03T01:31:50.379Z,3.50
2023-01-03T01:34:18.379Z,7.05
2023-01-03T01:36:48.030Z,2.38
2023-01-03T01:39:24.143Z,4.93
2023-01-03T01:42:19.869Z,4.28
2023-01-03T01:45:02.987Z,3.63
2023-01-03T01:47:36.705Z,5.18
2023-01-03T01:50:12.927Z,3.13
2023-01-03T01:52:48.071Z,5.18
2023-01-03T01:55:20.722Z,4.65
2023-01-03T01:57:48.733Z,2.95
2023-01-03T02:00:16.017Z,5.20
2023-01-03T02:02:48.359Z,2.38
2023-01-03T02:05:18.595Z,2.42
2023-01-03T02:07:49.372Z,2.72
2023-01-03T02:10:18.010Z,5.97
2023-01-03T02:13:13.799Z,8.25
2023-01-03T02:16:03.714Z,3.95
2023-01-03T02:18:43.260Z,2.65
2023-01-03T02:21:28.466Z,3.17
2023-01-03T02:24:44.326Z,3.90
2023-01-03T02:28:02.413Z,4.32
2023-01-03T02:30:35.118Z,5.88
2023-01-03T02:33:11.625Z,3.83
2023-01-03T02:35:57.433Z,4.72
2023-01-03T02:38:39.687Z,3.78
2023-01-03T02:41:22.062Z,4.97
2023-01-03T02:44:12.296Z,3.25
2023-01-03T02:46:46.372Z,4.30
2023-01-03T02:49:22.890Z,4.30
2023-01-03T02:51:54.959Z,6.60
2023-01-03T02:54:30.728Z,3.78
2023-01-03T02:57:04.551Z,3.47
2023-01-03T02:59:55.180Z,2.70
2023-01-03T03:02:26.348Z,4.32
2023-01-03T03:04:56.785Z,3.78
2023-01-03T03:07:28.566Z,6.57
2023-01-03T03:10:17.184Z,3.05
2023-01-03T03:13:07.993Z,7.85
2023-01-03T03:15:44.832Z,5.55
2023-01-03T03:18:18.425Z,4.13
2023-01-03T03:21:04.359Z,3.97
2023-01-03T03:23:54.766Z,3.35
2023-01-03T03:29:05.196Z,3.08
2023-01-03T03:31:37.276Z,4.73
2023-01-03T03:34:20.316Z,8.45
2023-01-03T03:36:47.324Z,6.28
2023-01-03T03:39:34.505Z,3.50
2023-01-03T03:42:36.133Z,6.00
2023-01-03T03:45:16.917Z,2.92
2023-01-03T03:48:07.922Z,3.05
2023-01-03T03:50:46.516Z,3.20
2023-01-03T03:53:16.359Z,3.58
2023-01-03T03:56:08.890Z,2.83
2023-01-03T03:58:41.666Z,3.08
2023-01-03T04:01:14.120Z,3.17
2023-01-03T04:03:44.311Z,3.88
2023-01-03T04:06:20.414Z,3.47
2023-01-03T04:08:47.636Z,8.48
2023-01-03T04:11:15.208Z,2.15
2023-01-03T04:13:42.383Z,4.30
2023-01-03T04:16:09.792Z,5.15
2023-01-03T04:18:36.987Z,2.55
2023-01-03T04:21:04.441Z,1.85
2023-01-03T04:23:31.654Z,6.15
2023-01-03T04:25:59.048Z,2.42
2023-01-03T04:28:26.225Z,3.40
2023-01-03T04:30:53.782Z,2.15
2023-01-03T04:33:20.939Z,3.17
2023-01-03T04:35:48.315Z,3.58
2023-01-03T04:38:15.393Z,5.63
2023-01-03T04:40:42.826Z,4.05
2023-01-03T04:43:29.596Z,1.65
2023-01-03T04:45:57.037Z,4.55
2023-01-03T04:48:24.177Z,3.95
2023-01-03T04:50:53.642Z,3.40
2023-01-03T04:53:21.538Z,1.80
2023-01-03T04:55:50.721Z,1.67
2023-01-03T04:58:18.168Z,6.38
2023-01-03T05:00:46.111Z,4.80
2023-01-03T05:03:13.597Z,9.48
2023-01-03T05:05:41.647Z,4.55
2023-01-03T05:08:11.034Z,3.38
2023-01-03T05:10:39.508Z,2.33
2023-01-03T05:13:07.242Z,5.13
2023-01-03T05:15:37.095Z,2.58
2023-01-03T05:18:04.365Z,4.00
2023-01-03T05:20:50.305Z,2.33
2023-01-03T05:23:37.211Z,7.68
2023-01-03T05:26:08.211Z,2.88
2023-01-03T05:28:35.715Z,4.00
2023-01-03T05:31:03.358Z,2.70
2023-01-03T05:33:30.463Z,6.72
2023-01-03T05:35:59.730Z,3.22
2023-01-03T05:38:27.051Z,6.03
2023-01-03T05:40:54.353Z,8.40
2023-01-03T05:43:21.546Z,4.70
2023-01-03T05:45:51.677Z,3.63
2023-01-03T05:50:47.423Z,6.60
2023-01-03T05:53:14.464Z,4.88
2023-01-03T05:55:41.923Z,5.43
2023-01-03T05:58:11.930Z,3.30
2023-01-03T06:00:39.506Z,5.78
2023-01-03T06:03:07.504Z,4.90
2023-01-03T06:05:35.231Z,4.03
2023-01-03T06:08:02.700Z,3.58
2023-01-03T06:10:30.077Z,7.75
2023-01-03T06:12:57.865Z,9.93
2023-01-03T06:15:25.235Z,15.60
2023-01-03T06:17:54.959Z,7.25
2023-01-03T06:20:22.420Z,11.57
2023-01-03T06:22:49.499Z,7.35
2023-01-03T06:25:16.972Z,8.48
2023-01-03T06:27:44.114Z,6.97
2023-01-03T06:30:11.800Z,12.02
2023-01-03T06:32:38.889Z,7.28
2023-01-03T06:35:06.493Z,4.78
2023-01-03T06:37:33.644Z,3.60
2023-01-03T06:40:01.267Z,10.82
2023-01-03T06:42:42.189Z,5.25
2023-01-03T06:45:30.349Z,4.57
2023-01-03T06:48:17.791Z,5.82
2023-01-03T06:51:03.589Z,7.20
2023-01-03T06:53:35.205Z,7.57
2023-01-03T06:56:03.420Z,12.63
2023-01-03T06:58:30.460Z,13.80
2023-01-03T07:01:02.736Z,7.03
2023-01-03T07:03:34.651Z,7.95
2023-01-03T07:06:02.049Z,6.93
2023-01-03T07:08:29.119Z,8.65
2023-01-03T07:10:56.496Z,9.25
2023-01-03T07:13:42.135Z,7.45
2023-01-03T07:16:17.645Z,10.05
2023-01-03T07:18:49.298Z,7.32
2023-01-03T07:21:24.252Z,6.05
2023-01-03T07:23:55.817Z,5.97
2023-01-03T07:26:24.443Z,5.72
2023-01-03T07:28:52.695Z,7.05
2023-01-03T07:31:20.636Z,5.88
2023-01-03T07:33:47.721Z,6.72
2023-01-03T07:36:16.736Z,12.88
2023-01-03T07:38:45.370Z,10.23
2023-01-03T07:41:14.481Z,4.30
2023-01-03T07:43:46.912Z,12.18
2023-01-03T07:46:20.487Z,5.88
2023-01-03T07:48:57.079Z,6.72
2023-01-03T07:51:24.491Z,7.13
2023-01-03T07:53:52.983Z,7.35
2023-01-03T07:56:21.937Z,5.13
2023-01-03T07:58:51.967Z,9.75
2023-01-03T08:01:22.788Z,4.25
2023-01-03T08:03:50.684Z,5.30
2023-01-03T08:06:20.881Z,7.22
2023-01-03T08:09:07.223Z,11.73
2023-01-03T08:11:52.971Z,11.00
2023-01-03T08:14:25.731Z,4.97
2023-01-03T08:16:55.618Z,13.93
2023-01-03T08:19:23.759Z,4.60
2023-01-03T08:21:51.222Z,8.32
2023-01-03T08:24:18.375Z,9.93
2023-01-03T08:26:45.802Z,6.93
2023-01-03T08:29:13.275Z,10.50
2023-01-03T08:31:55.783Z,8.20
2023-01-03T08:34:29.463Z,13.52
2023-01-03T08:37:07.742Z,13.60
2023-01-03T08:39:42.153Z,11.82
2023-01-03T08:42:12.808Z,8.65
2023-01-03T08:44:40.517Z,19.70
2023-01-03T08:47:09.353Z,19.60
2023-01-03T08:49:37.362Z,18.45
2023-01-03T08:52:05.232Z,14.35
2023-01-03T08:54:32.540Z,17.42
2023-01-03T08:57:00.053Z,12.05
2023-01-03T08:59:28.032Z,14.52
2023-01-03T09:02:02.343Z,7.60
2023-01-03T09:04:29.549Z,8.93
2023-01-03T09:06:57.444Z,8.43
2023-01-03T09:09:24.554Z,7.63
2023-01-03T09:11:51.839Z,7.05
2023-01-03T09:14:19.510Z,6.85
2023-01-03T09:16:49.371Z,9.70
2023-01-03T09:21:44.060Z,10.18
2023-01-03T09:24:11.217Z,7.30
2023-01-03T09:26:38.763Z,4.32
2023-01-03T09:29:05.959Z,7.55
2023-01-03T09:31:35.413Z,9.38
2023-01-03T09:34:05.351Z,10.00
2023-01-03T09:36:33.075Z,6.18
2023-01-03T09:39:00.423Z,10.48
2023-01-03T09:41:28.437Z,4.88
2023-01-03T09:44:14.462Z,12.07
2023-01-03T09:46:41.879Z,6.40
2023-01-03T09:49:14.015Z,13.75
2023-01-03T09:52:03.720Z,5.63
2023-01-03T09:54:57.048Z,13.35
2023-01-03T09:57:47.089Z,13.52
2023-01-03T10:00:39.579Z,8.50
2023-01-03T10:03:44.810Z,10.13
2023-01-03T10:06:25.164Z,9.85
2023-01-03T10:09:06.102Z,6.30
2023-01-03T10:11:45.285Z,4.78
2023-01-03T10:14:21.783Z,3.00
2023-01-03T10:17:03.349Z,9.30
2023-01-03T10:19:57.461Z,8.95
2023-01-03T10:22:30.387Z,5.65
2023-01-03T10:25:14.555Z,8.23
2023-01-03T10:27:46.494Z,13.30
2023-01-03T10:30:18.138Z,12.35
2023-01-03T10:32:54.318Z,5.35
2023-01-03T10:35:24.246Z,5.65
2023-01-03T10:37:53.154Z,9.43
2023-01-03T10:40:21.212Z,6.25
2023-01-03T10:42:50.370Z,8.90
2023-01-03T10:45:20.554Z,9.35
2023-01-03T10:50:28.923Z,9.25
2023-01-03T10:53:00.668Z,6.88
2023-01-03T10:55:28.483Z,8.63
2023-01-03T10:57:55.740Z,7.45
2023-01-03T11:00:26.773Z,9.93
2023-01-03T11:02:55.956Z,9.52
2023-01-03T11:05:26.314Z,9.48
2023-01-03T11:10:52.498Z,7.13
2023-01-03T11:13:43.212Z,10.15
2023-01-03T11:16:19.648Z,6.50
2023-01-03T11:19:04.778Z,9.48
2023-01-03T11:21:56.505Z,6.70
2023-01-03T11:24:44.605Z,7.10
2023-01-03T11:27:28.692Z,6.97
2023-01-03T11:30:16.351Z,8.93
2023-01-03T11:33:21.511Z,9.00
2023-01-03T11:36:18.177Z,5.50
2023-01-03T11:38:45.942Z,9.95
2023-01-03T11:41:50.668Z,9.77
2023-01-03T11:44:37.314Z,9.68
2023-01-03T11:47:19.351Z,16.30
2023-01-03T11:50:29.353Z,8.23
2023-01-03T11:53:05.870Z,5.45
2023-01-03T11:56:03.903Z,8.23
2023-01-03T11:59:21.868Z,4.45
2023-01-03T12:02:40.609Z,28.58
2023-01-03T12:05:38.557Z,3.95
2023-01-03T12:08:32.130Z,7.13
2023-01-03T12:11:21.969Z,14.07
2023-01-03T12:14:03.941Z,13.18
2023-01-03T12:16:43.593Z,8.23
2023-01-03T12:19:34.561Z,14.10
2023-01-03T12:22:38.233Z,6.55
2023-01-03T12:25:18.937Z,8.20
2023-01-03T12:27:59.609Z,7.38
2023-01-03T12:30:59.161Z,6.85
2023-01-03T12:33:32.019Z,6.75
2023-01-03T12:36:18.254Z,4.95
2023-01-03T12:39:03.466Z,14.10
2023-01-03T12:41:42.458Z,12.07
2023-01-03T12:44:25.456Z,8.05
2023-01-03T12:46:56.518Z,10.13
2023-01-03T12:49:32.110Z,9.13
2023-01-03T12:51:59.532Z,5.88
2023-01-03T12:55:04.984Z,9.68
2023-01-03T12:57:42.417Z,10.40
2023-01-03T13:00:33.627Z,8.68
2023-01-03T13:03:38.881Z,11.95
2023-01-03T13:06:20.863Z,9.60
2023-01-03T13:09:01.815Z,10.05
2023-01-03T13:11:42.534Z,15.52
2023-01-03T13:14:23.192Z,17.10
2023-01-03T13:17:14.871Z,6.97
2023-01-03T13:20:00.252Z,32.67
2023-01-03T13:22:34.934Z,24.83
2023-01-03T13:25:40.006Z,15.40
2023-01-03T13:28:07.106Z,29.30
2023-01-03T13:30:36.804Z,21.45
2023-01-03T13:33:13.388Z,24.88
2023-01-03T13:35:43.883Z,9.85
2023-01-03T13:38:25.802Z,9.00
2023-01-03T13:43:50.129Z,9.10
2023-01-03T13:46:23.577Z,8.40
2023-01-03T13:49:07.431Z,11.20
2023-01-03T13:51:41.028Z,63.83
2023-01-03T13:54:11.250Z,12.18
2023-01-03T13:56:45.364Z,10.98
2023-01-03T13:59:26.454Z,14.27
2023-01-03T14:02:03.527Z,19.90
2023-01-03T14:04:33.816Z,34.90
2023-01-03T14:07:10.668Z,43.25
2023-01-03T14:09:50.458Z,9.95
2023-01-03T14:12:51.957Z,14.20
2023-01-03T14:15:26.256Z,7.53
2023-01-03T14:18:29.099Z,6.90
2023-01-03T14:20:58.299Z,12.55
2023-01-03T14:26:17.698Z,12.02
2023-01-03T14:28:51.218Z,5.35
2023-01-03T14:31:27.650Z,8.70
2023-01-03T14:33:55.506Z,6.75
2023-01-03T14:36:22.995Z,7.75
2023-01-03T14:38:55.229Z,9.50
2023-01-03T14:41:38.445Z,4.95
2023-01-03T14:44:12.180Z,12.52
2023-01-03T14:46:42.759Z,17.88
2023-01-03T14:49:32.990Z,9.93
2023-01-03T14:52:09.467Z,21.27
2023-01-03T14:54:38.113Z,22.13
2023-01-03T14:57:05.399Z,28.80
2023-01-03T14:59:34.632Z,16.60
2023-01-03T15:02:02.648Z,14.07
2023-01-03T15:04:30.661Z,14.30
2023-01-03T15:07:11.298Z,8.43
2023-01-03T15:09:41.265Z,20.70
2023-01-03T15:12:08.632Z,16.60
2023-01-03T15:14:39.298Z,12.77
2023-01-03T15:17:15.815Z,15.00
2023-01-03T15:19:51.066Z,14.00
2023-01-03T15:22:22.942Z,13.23
2023-01-03T15:25:04.564Z,18.90
2023-01-03T15:27:34.102Z,29.58
2023-01-03T15:30:20.741Z,27.08
2023-01-03T15:32:59.074Z,42.85
2023-01-03T15:35:31.918Z,25.88
2023-01-03T15:38:01.513Z,12.75
2023-01-03T15:40:32.214Z,13.85
2023-01-03T15:43:23.323Z,29.08
2023-01-03T15:46:15.200Z,31.88
2023-01-03T15:48:51.030Z,28.10
2023-01-03T15:51:18.570Z,24.67
2023-01-03T15:53:46.073Z,23.58
2023-01-03T15:56:30.008Z,26.25
2023-01-03T15:58:57.995Z,19.65
2023-01-03T16:01:26.163Z,21.83
2023-01-03T16:03:54.270Z,27.65
2023-01-03T16:06:22.433Z,17.23
2023-01-03T16:08:50.306Z,15.55
2023-01-03T16:11:31.586Z,25.15
2023-01-03T16:14:07.021Z,31.17
2023-01-03T16:16:39.650Z,13.57
2023-01-03T16:19:08.318Z,15.60
2023-01-03T16:21:36.260Z,12.40
2023-01-03T16:24:05.073Z,22.80
2023-01-03T16:26:33.056Z,21.30
2023-01-03T16:29:00.519Z,34.92
2023-01-03T16:31:35.081Z,33.55
2023-01-03T16:34:05.378Z,21.80
2023-01-03T16:36:41.261Z,16.15
2023-01-03T16:39:21.451Z,34.75
2023-01-03T16:42:09.323Z,13.98
2023-01-03T16:44:39.495Z,22.25
2023-01-03T16:49:43.678Z,9.10
2023-01-03T16:52:20.288Z,16.30
2023-01-03T16:54:50.804Z,16.63
2023-01-03T16:57:21.829Z,11.27
2023-01-03T16:59:49.877Z,18.58
2023-01-03T17:02:18.040Z,16.80
2023-01-03T17:04:45.797Z,24.58
2023-01-03T17:07:24.130Z,27.40
2023-01-03T17:09:52.556Z,20.90
2023-01-03T17:12:22.811Z,10.00
2023-01-03T17:14:52.123Z,12.30
2023-01-03T17:17:22.437Z,23.15
2023-01-03T17:20:06.763Z,13.23
2023-01-03T17:22:35.149Z,20.17
2023-01-03T17:25:02.488Z,19.10
2023-01-03T17:27:33.189Z,17.45
2023-01-03T17:30:04.659Z,48.33
2023-01-03T17:32:34.168Z,22.45
2023-01-03T17:35:03.361Z,20.20
2023-01-03T17:37:45.493Z,23.00
2023-01-03T17:40:33.389Z,11.23
2023-01-03T17:43:05.262Z,27.73
2023-01-03T17:45:52.131Z,11.32
2023-01-03T17:48:40.072Z,12.57
2023-01-03T17:51:08.830Z,14.50
2023-01-03T17:53:37.686Z,11.30
2023-01-03T17:56:05.783Z,9.15
2023-01-03T17:58:37.921Z,10.75
2023-01-03T18:01:08.350Z,6.13
2023-01-03T18:03:37.103Z,15.13
2023-01-03T18:06:11.281Z,16.45
2023-01-03T18:08:40.951Z,14.90
2023-01-03T18:11:15.627Z,11.45
2023-01-03T18:13:45.748Z,21.38
2023-01-03T18:16:18.979Z,36.22
2023-01-03T18:18:48.238Z,46.10
2023-01-03T18:21:27.997Z,36.50
2023-01-03T18:23:59.226Z,53.25
2023-01-03T18:26:33.470Z,54.05
2023-01-03T18:29:02.386Z,48.95
2023-01-03T18:31:30.491Z,28.25
2023-01-03T18:33:58.949Z,37.97
2023-01-03T18:36:58.238Z,24.35
2023-01-03T18:40:41.800Z,39.30
2023-01-03T18:43:13.274Z,37.63
2023-01-03T18:45:41.837Z,39.92
2023-01-03T18:48:15.198Z,32.28
2023-01-03T18:50:43.926Z,19.20
2023-01-03T18:53:37.777Z,15.20
2023-01-03T18:56:05.429Z,21.38
2023-01-03T18:58:33.351Z,22.00
2023-01-03T19:01:01.156Z,24.02
2023-01-03T19:03:31.338Z,37.33
2023-01-03T19:06:00.508Z,18.80
2023-01-03T19:08:32.191Z,22.05
2023-01-03T19:11:06.154Z,24.95
2023-01-03T19:13:51.191Z,19.55
2023-01-03T19:16:21.514Z,15.07
2023-01-03T19:18:50.068Z,13.27
2023-01-03T19:21:19.548Z,23.80
2023-01-03T19:24:08.328Z,21.10
2023-01-03T19:26:45.768Z,23.73
2023-01-03T19:29:20.851Z,18.45
2023-01-03T19:31:50.130Z,21.15
2023-01-03T19:34:26.654Z,35.53
2023-01-03T19:36:53.773Z,19.55
2023-01-03T19:39:25.874Z,29.33
2023-01-03T19:42:18.301Z,27.33
2023-01-03T19:44:45.933Z,20.95
2023-01-03T19:47:15.896Z,16.70
2023-01-03T19:49:47.342Z,11.70
2023-01-03T19:52:16.203Z,18.77
2023-01-03T19:54:44.657Z,25.55
2023-01-03T19:57:30.398Z,24.75
2023-01-03T20:00:00.814Z,22.73
2023-01-03T20:02:46.603Z,25.67
2023-01-03T20:05:23.548Z,21.98
2023-01-03T20:07:51.782Z,35.97
2023-01-03T20:10:25.595Z,31.08
2023-01-03T20:12:55.897Z,33.38
2023-01-03T20:15:30.009Z,35.10
2023-01-03T20:17:58.398Z,28.35
2023-01-03T20:20:30.250Z,25.50
2023-01-03T20:23:14.926Z,27.00
2023-01-03T20:25:44.001Z,20.17
2023-01-03T20:28:29.557Z,23.88
2023-01-03T20:30:59.366Z,24.65
2023-01-03T20:33:28.532Z,29.13
2023-01-03T20:36:17.563Z,34.17
2023-01-03T20:38:49.112Z,24.83
2023-01-03T20:41:18.722Z,17.17
2023-01-03T20:43:49.276Z,12.23
2023-01-03T20:46:20.780Z,13.55
2023-01-03T20:49:00.574Z,14.50
2023-01-03T20:51:29.669Z,10.23
2023-01-03T20:53:58.916Z,17.00
2023-01-03T20:56:28.909Z,20.08
2023-01-03T20:58:58.545Z,18.65
2023-01-03T21:01:26.879Z,15.00
2023-01-03T21:03:54.955Z,20.20
2023-01-03T21:06:30.114Z,24.88
2023-01-03T21:08:58.446Z,15.73
2023-01-03T21:11:26.779Z,18.50
2023-01-03T21:13:55.913Z,14.63
2023-01-03T21:16:31.196Z,10.75
2023-01-03T21:19:22.068Z,12.60
2023-01-03T21:21:59.129Z,11.23
2023-01-03T21:24:29.606Z,90.30
2023-01-03T21:26:58.581Z,34.15
2023-01-03T21:29:26.116Z,27.08
2023-01-03T21:31:53.936Z,24.88
2023-01-03T21:34:22.168Z,17.52
2023-01-03T21:36:50.237Z,15.18
2023-01-03T21:39:18.446Z,5.68
2023-01-03T21:42:05.235Z,9.65
2023-01-03T21:44:32.576Z,14.02
2023-01-03T21:47:00.237Z,13.10
2023-01-03T21:49:27.711Z,14.48
2023-01-03T21:51:55.421Z,32.70
2023-01-03T21:54:22.667Z,17.45
2023-01-03T21:56:49.995Z,8.88
2023-01-03T21:59:18.496Z,13.20
2023-01-03T22:02:05.367Z,12.48
2023-01-03T22:04:34.216Z,15.13
2023-01-03T22:07:02.363Z,11.80
2023-01-03T22:09:50.009Z,8.70
2023-01-03T22:12:18.564Z,10.85
2023-01-03T22:14:46.969Z,8.57
2023-01-03T22:17:14.977Z,9.35
2023-01-03T22:19:42.857Z,9.52
2023-01-03T22:22:10.265Z,14.10
2023-01-03T22:24:37.874Z,11.90
2023-01-03T22:27:06.183Z,10.05
2023-01-03T22:29:33.790Z,14.90
2023-01-03T22:32:01.315Z,16.05
2023-01-03T22:34:29.083Z,12.75
2023-01-03T22:36:56.181Z,10.18
2023-01-03T22:39:26.369Z,8.85
2023-01-03T22:44:21.369Z,23.45
2023-01-03T22:46:49.170Z,16.77
2023-01-03T22:49:16.681Z,16.20
2023-01-03T22:51:44.122Z,14.00
2023-01-03T22:54:11.720Z,11.85
2023-01-03T22:56:38.783Z,11.35
2023-01-03T22:59:06.245Z,12.43
2023-01-03T23:01:34.240Z,18.33
2023-01-03T23:04:07.783Z,13.07
2023-01-03T23:06:36.408Z,12.93
2023-01-03T23:09:04.449Z,13.27
2023-01-03T23:11:51.086Z,10.35
2023-01-03T23:14:20.774Z,12.38
2023-01-03T23:16:48.571Z,14.77
2023-01-03T23:19:18.590Z,12.50
2023-01-03T23:21:46.162Z,9.68
2023-01-03T23:24:22.457Z,12.05
2023-01-03T23:26:50.932Z,21.10
2023-01-03T23:29:18.514Z,16.52
2023-01-03T23:31:45.645Z,12.88
2023-01-03T23:34:13.341Z,15.70
2023-01-03T23:36:43.349Z,24.33
2023-01-03T23:39:16.394Z,23.77
2023-01-03T23:41:44.286Z,18.10
2023-01-03T23:44:12.059Z,14.02
2023-01-03T23:46:39.369Z,15.70
2023-01-03T23:49:07.088Z,13.32
2023-01-03T23:51:34.292Z,11.07
2023-01-03T23:54:01.712Z,9.50
2023-01-03T23:56:28.796Z,17.52
2023-01-03T23:58:56.208Z,14.55
